Terminal Aerodrome Forecast
Issued by NWS Amarillo, TX

Current Version | Previous Version | Text Only | Print | Product List | Glossary On
Versions: 1 2 3 4 5 6 7 8 9 10 11 12 13 14 15
710
FTUS44 KAMA 212016 AAA
TAFAMA
TAF AMD
KAMA 212016Z 2120/2218 23018G30KT P6SM SCT030 OVC100
      TEMPO 2120/2122 2SM -RA BR SCT015 OVC030
     FM220200 32022G34KT P6SM OVC040=

USA.gov is the U.S. government's official web portal to all federal, state and local government web resources and services.